createdAt,value
2023-09-27T00:02:02.188Z,11.55
2023-09-27T00:04:29.472Z,11.55
2023-09-27T00:06:56.647Z,11.15
2023-09-27T00:09:23.711Z,10.95
2023-09-27T00:11:50.610Z,11.55
2023-09-27T00:14:17.587Z,11.68
2023-09-27T00:16:44.533Z,12.65
2023-09-27T00:19:12.329Z,12.38
2023-09-27T00:21:39.173Z,13.10
2023-09-27T00:24:06.373Z,11.38
2023-09-27T00:26:33.248Z,11.95
2023-09-27T00:29:00.267Z,13.10
2023-09-27T00:31:27.176Z,12.52
2023-09-27T00:33:54.369Z,11.82
2023-09-27T00:36:21.271Z,14.13
2023-09-27T00:38:48.311Z,12.93
2023-09-27T00:41:15.672Z,13.43
2023-09-27T00:43:42.698Z,14.77
2023-09-27T00:46:17.607Z,15.23
2023-09-27T00:48:45.219Z,14.02
2023-09-27T00:51:12.796Z,13.85
2023-09-27T00:53:42.454Z,13.85
2023-09-27T00:56:11.102Z,13.68
2023-09-27T00:58:39.603Z,14.02
2023-09-27T01:01:07.474Z,12.90
2023-09-27T01:03:35.051Z,13.70
2023-09-27T01:06:02.189Z,13.00
2023-09-27T01:08:30.925Z,13.63
2023-09-27T01:10:57.983Z,14.25
2023-09-27T01:13:24.945Z,12.88
2023-09-27T01:15:52.462Z,13.05
2023-09-27T01:18:19.546Z,13.77
2023-09-27T01:20:46.945Z,13.90
2023-09-27T01:23:14.418Z,14.60
2023-09-27T01:25:41.405Z,13.25
2023-09-27T01:28:10.885Z,13.60
2023-09-27T01:30:39.059Z,14.75
2023-09-27T01:33:08.281Z,14.75
2023-09-27T01:35:43.512Z,13.48
2023-09-27T01:40:41.763Z,14.63
2023-09-27T01:43:09.528Z,15.35
2023-09-27T01:45:37.179Z,14.10
2023-09-27T01:48:05.354Z,15.48
2023-09-27T01:50:35.257Z,15.98
2023-09-27T01:53:02.447Z,14.75
2023-09-27T01:55:29.365Z,15.60
2023-09-27T01:57:57.058Z,16.15
2023-09-27T02:00:24.427Z,16.45
2023-09-27T02:02:55.168Z,16.67
2023-09-27T02:05:22.887Z,16.65
2023-09-27T02:07:49.817Z,16.23
2023-09-27T02:10:17.214Z,17.40
2023-09-27T02:12:44.696Z,19.20
2023-09-27T02:15:15.262Z,19.83
2023-09-27T02:17:43.935Z,17.92
2023-09-27T02:20:14.563Z,18.83
2023-09-27T02:22:42.605Z,18.75
2023-09-27T02:25:14.436Z,17.63
2023-09-27T02:27:43.775Z,15.70
2023-09-27T02:30:13.976Z,18.58
2023-09-27T02:32:43.980Z,18.00
2023-09-27T02:35:12.298Z,17.48
2023-09-27T02:37:45.182Z,19.63
2023-09-27T02:40:13.200Z,18.33
2023-09-27T02:42:42.549Z,18.60
2023-09-27T02:45:10.858Z,17.83
2023-09-27T02:47:39.638Z,17.90
2023-09-27T02:50:11.174Z,19.23
2023-09-27T02:52:39.587Z,20.83
2023-09-27T02:55:10.119Z,20.20
2023-09-27T02:57:39.387Z,19.17
2023-09-27T03:00:07.835Z,18.90
2023-09-27T03:02:36.250Z,19.42
2023-09-27T03:05:06.093Z,18.10
2023-09-27T03:07:35.107Z,18.92
2023-09-27T03:10:11.888Z,19.25
2023-09-27T03:12:40.569Z,20.45
2023-09-27T03:15:12.637Z,20.42
2023-09-27T03:17:42.502Z,20.02
2023-09-27T03:20:11.471Z,18.60
2023-09-27T03:22:39.368Z,19.35
2023-09-27T03:25:08.726Z,19.58
2023-09-27T03:27:35.823Z,20.45
2023-09-27T03:30:04.782Z,18.83
2023-09-27T03:32:33.694Z,20.05
2023-09-27T03:35:00.944Z,19.35
2023-09-27T03:37:28.933Z,20.13
2023-09-27T03:39:56.986Z,22.05
2023-09-27T03:42:24.566Z,21.40
2023-09-27T03:44:51.665Z,22.55
2023-09-27T03:47:18.892Z,20.85
2023-09-27T03:49:45.846Z,20.58
2023-09-27T03:52:12.986Z,21.55
2023-09-27T03:54:40.671Z,21.33
2023-09-27T03:57:07.657Z,22.73
2023-09-27T03:59:34.631Z,22.30
2023-09-27T04:02:02.303Z,22.60
2023-09-27T04:04:29.300Z,23.92
2023-09-27T04:06:57.283Z,21.98
2023-09-27T04:09:24.360Z,22.50
2023-09-27T04:11:51.324Z,22.02
2023-09-27T04:14:18.372Z,21.73
2023-09-27T04:16:45.393Z,24.70
2023-09-27T04:19:12.202Z,22.90
2023-09-27T04:21:39.122Z,22.75
2023-09-27T04:24:06.377Z,23.83
2023-09-27T04:26:33.749Z,23.10
2023-09-27T04:29:01.537Z,24.35
2023-09-27T04:31:28.998Z,21.92
2023-09-27T04:33:56.035Z,23.15
2023-09-27T04:36:23.018Z,20.95
2023-09-27T04:38:50.435Z,22.42
2023-09-27T04:41:19.105Z,22.52
2023-09-27T04:43:46.319Z,22.60
2023-09-27T04:46:20.152Z,24.40
2023-09-27T04:48:47.204Z,22.85
2023-09-27T04:51:14.129Z,22.67
2023-09-27T04:53:41.290Z,24.85
2023-09-27T04:56:09.337Z,22.65
2023-09-27T04:58:38.582Z,22.92
2023-09-27T05:01:07.407Z,22.13
2023-09-27T05:03:34.789Z,22.23
2023-09-27T05:06:01.910Z,23.20
2023-09-27T05:08:28.830Z,23.05
2023-09-27T05:10:57.401Z,23.50
2023-09-27T05:13:24.521Z,28.95
2023-09-27T05:15:54.642Z,26.85
2023-09-27T05:18:24.064Z,26.48
2023-09-27T05:20:52.702Z,25.08
2023-09-27T05:23:19.941Z,27.92
2023-09-27T05:25:47.660Z,29.92
2023-09-27T05:28:14.609Z,31.38
2023-09-27T05:30:42.840Z,29.85
2023-09-27T05:33:10.017Z,29.75
2023-09-27T05:35:36.918Z,30.90
2023-09-27T05:38:04.569Z,29.42
2023-09-27T05:40:32.546Z,30.17
2023-09-27T05:43:00.688Z,29.73
2023-09-27T05:45:29.351Z,32.28
2023-09-27T05:47:56.366Z,33.20
2023-09-27T05:50:24.153Z,30.33
2023-09-27T05:52:51.201Z,31.92
2023-09-27T05:55:18.760Z,30.67
2023-09-27T05:57:45.866Z,31.45
2023-09-27T06:00:27.903Z,30.25
2023-09-27T06:02:55.370Z,31.50
2023-09-27T06:05:22.721Z,31.00
2023-09-27T06:07:50.269Z,29.42
2023-09-27T06:10:17.819Z,27.95
2023-09-27T06:12:44.855Z,33.50
2023-09-27T06:15:13.944Z,30.38
2023-09-27T06:17:41.559Z,31.05
2023-09-27T06:20:12.839Z,30.60
2023-09-27T06:22:41.336Z,29.25
2023-09-27T06:25:08.605Z,32.60
2023-09-27T06:27:36.085Z,30.63
2023-09-27T06:30:04.814Z,30.50
2023-09-27T06:32:32.154Z,32.92
2023-09-27T06:34:59.466Z,29.50
2023-09-27T06:37:26.613Z,29.15
2023-09-27T06:39:53.499Z,29.42
2023-09-27T06:42:20.574Z,31.48
2023-09-27T06:44:47.642Z,31.25
2023-09-27T06:47:14.672Z,28.23
2023-09-27T06:49:41.641Z,27.52
2023-09-27T06:52:09.856Z,29.52
2023-09-27T06:54:36.787Z,29.30
2023-09-27T06:57:03.750Z,28.52
2023-09-27T06:59:32.587Z,29.85
2023-09-27T07:01:59.572Z,29.50
2023-09-27T07:04:26.499Z,29.50
2023-09-27T07:06:54.011Z,28.63
2023-09-27T07:09:22.050Z,29.42
2023-09-27T07:11:49.680Z,26.58
2023-09-27T07:14:21.268Z,27.25
2023-09-27T07:17:01.018Z,27.50
2023-09-27T07:19:32.413Z,26.70
2023-09-27T07:22:00.641Z,28.50
2023-09-27T07:24:31.173Z,30.25
2023-09-27T07:26:58.218Z,27.98
2023-09-27T07:29:25.116Z,28.52
2023-09-27T07:31:52.073Z,30.02
2023-09-27T07:34:18.959Z,25.85
2023-09-27T07:36:45.935Z,29.35
2023-09-27T07:39:14.284Z,29.60
2023-09-27T07:41:43.262Z,31.25
2023-09-27T07:44:11.354Z,29.27
2023-09-27T07:46:39.461Z,29.00
2023-09-27T07:49:06.635Z,27.83
2023-09-27T07:51:33.549Z,28.83
2023-09-27T07:54:00.994Z,27.52
2023-09-27T07:56:28.167Z,26.48
2023-09-27T07:58:56.003Z,26.15
2023-09-27T08:01:25.080Z,26.55
2023-09-27T08:03:53.500Z,24.88
2023-09-27T08:06:21.299Z,25.20
2023-09-27T08:08:49.090Z,25.35
2023-09-27T08:11:17.129Z,26.38
2023-09-27T08:13:44.258Z,23.55
2023-09-27T08:16:11.296Z,24.48
2023-09-27T08:18:44.034Z,24.58
2023-09-27T08:21:11.514Z,24.60
2023-09-27T08:23:39.082Z,25.00
2023-09-27T08:26:06.105Z,24.33
2023-09-27T08:28:33.140Z,24.70
2023-09-27T08:31:01.085Z,23.80
2023-09-27T08:33:28.894Z,24.08
2023-09-27T08:36:00.162Z,24.35
2023-09-27T08:38:27.936Z,23.42
2023-09-27T08:40:55.160Z,22.25
2023-09-27T08:43:24.174Z,22.98
2023-09-27T08:45:52.724Z,21.92
2023-09-27T08:48:23.673Z,23.02
2023-09-27T08:50:52.166Z,22.17
2023-09-27T08:53:19.288Z,23.80
2023-09-27T08:55:54.014Z,22.45
2023-09-27T08:58:25.998Z,22.02
2023-09-27T09:00:54.052Z,18.52
2023-09-27T09:03:21.167Z,21.25
2023-09-27T09:05:50.396Z,19.25
2023-09-27T09:08:21.134Z,20.65
2023-09-27T09:10:55.046Z,21.05
2023-09-27T09:13:24.177Z,19.00
2023-09-27T09:15:52.358Z,19.77
2023-09-27T09:18:30.598Z,20.50
2023-09-27T09:21:09.706Z,22.35
2023-09-27T09:23:38.875Z,22.80
2023-09-27T09:26:08.815Z,22.77
2023-09-27T09:28:37.625Z,21.73
2023-09-27T09:31:04.711Z,24.63
2023-09-27T09:33:37.989Z,23.73
2023-09-27T09:36:05.389Z,24.35
2023-09-27T09:38:33.142Z,22.60
2023-09-27T09:41:02.965Z,23.02
2023-09-27T09:43:38.388Z,20.77
2023-09-27T09:46:08.236Z,21.25
2023-09-27T09:48:36.584Z,19.02
2023-09-27T09:51:07.379Z,18.45
2023-09-27T09:53:40.939Z,17.75
2023-09-27T09:56:30.062Z,16.75
2023-09-27T09:59:04.511Z,15.57
2023-09-27T10:01:38.838Z,14.63
2023-09-27T10:04:07.074Z,14.53
2023-09-27T10:06:48.876Z,14.85
2023-09-27T10:09:17.533Z,14.60
2023-09-27T10:11:46.532Z,15.40
2023-09-27T10:14:15.760Z,15.50
2023-09-27T10:16:42.931Z,14.32
2023-09-27T10:19:09.930Z,16.33
2023-09-27T10:22:02.231Z,15.02
2023-09-27T10:24:29.624Z,17.50
2023-09-27T10:26:56.630Z,17.75
2023-09-27T10:29:23.886Z,15.55
2023-09-27T10:32:01.633Z,15.68
2023-09-27T10:34:34.779Z,15.52
2023-09-27T10:37:15.568Z,14.30
2023-09-27T10:40:20.626Z,13.98
2023-09-27T10:42:48.625Z,14.48
2023-09-27T10:45:17.553Z,13.60
2023-09-27T10:47:45.098Z,13.80
2023-09-27T10:50:12.358Z,14.05
2023-09-27T10:52:40.679Z,13.48
2023-09-27T10:55:14.406Z,12.05
2023-09-27T10:57:42.680Z,12.93
2023-09-27T11:00:13.222Z,12.23
2023-09-27T11:02:40.734Z,12.35
2023-09-27T11:05:09.364Z,11.13
2023-09-27T11:07:47.969Z,11.43
2023-09-27T11:10:38.765Z,11.10
2023-09-27T11:13:14.249Z,9.52
2023-09-27T11:15:42.726Z,10.70
2023-09-27T11:18:11.319Z,10.07
2023-09-27T11:20:40.804Z,11.25
2023-09-27T11:23:08.375Z,10.98
2023-09-27T11:25:37.697Z,10.77
2023-09-27T11:28:05.311Z,9.73
2023-09-27T11:30:36.460Z,11.30
2023-09-27T11:33:07.576Z,10.30
2023-09-27T11:35:35.422Z,10.75
2023-09-27T11:38:13.501Z,8.82
2023-09-27T11:40:43.726Z,8.68
2023-09-27T11:43:12.399Z,9.93
2023-09-27T11:45:50.457Z,8.95
2023-09-27T11:48:32.389Z,8.05
2023-09-27T11:51:03.340Z,8.13
2023-09-27T11:53:31.478Z,7.38
2023-09-27T11:56:00.496Z,8.93
2023-09-27T11:58:28.038Z,7.82
2023-09-27T12:00:55.015Z,8.30
2023-09-27T12:03:22.291Z,7.03
2023-09-27T12:05:49.796Z,5.63
2023-09-27T12:08:17.082Z,5.72
2023-09-27T12:10:44.009Z,5.90
2023-09-27T12:13:11.184Z,5.78
2023-09-27T12:15:38.168Z,6.70
2023-09-27T12:18:05.648Z,5.72
2023-09-27T12:23:02.613Z,5.93
2023-09-27T12:25:29.482Z,6.38
2023-09-27T12:27:56.408Z,5.95
2023-09-27T12:30:23.383Z,6.03
2023-09-27T12:32:52.384Z,5.97
2023-09-27T12:35:21.346Z,6.30
2023-09-27T12:37:49.142Z,6.45
2023-09-27T12:40:16.408Z,5.53
2023-09-27T12:42:43.435Z,6.05
2023-09-27T12:45:10.804Z,5.63
2023-09-27T12:47:37.859Z,6.43
2023-09-27T12:50:06.122Z,5.85
2023-09-27T12:52:33.424Z,5.50
2023-09-27T12:55:00.405Z,5.30
2023-09-27T12:57:27.443Z,5.88
2023-09-27T12:59:54.377Z,6.25
2023-09-27T13:02:21.748Z,6.13
2023-09-27T13:04:48.822Z,5.50
2023-09-27T13:07:17.778Z,5.40
2023-09-27T13:09:45.569Z,5.10
2023-09-27T13:12:12.606Z,5.22
2023-09-27T13:14:39.588Z,5.72
2023-09-27T13:17:06.479Z,6.15
2023-09-27T13:19:33.471Z,6.25
2023-09-27T13:22:00.421Z,5.97
2023-09-27T13:24:27.510Z,6.63
2023-09-27T13:26:54.461Z,6.75
2023-09-27T13:29:21.418Z,7.28
2023-09-27T13:31:48.378Z,7.72
2023-09-27T13:34:17.015Z,6.55
2023-09-27T13:36:44.263Z,6.90
2023-09-27T13:39:17.763Z,6.88
2023-09-27T13:41:46.270Z,7.07
2023-09-27T13:44:14.168Z,7.80
2023-09-27T13:46:42.184Z,7.55
2023-09-27T13:49:09.813Z,8.13
2023-09-27T13:51:38.468Z,7.65
2023-09-27T13:54:08.288Z,6.80
2023-09-27T13:56:36.507Z,7.30
2023-09-27T13:59:04.930Z,6.50
2023-09-27T14:01:32.025Z,6.85
2023-09-27T14:04:03.175Z,6.38
2023-09-27T14:06:36.248Z,5.80
2023-09-27T14:09:03.339Z,6.38
2023-09-27T14:11:30.643Z,6.45
2023-09-27T14:13:57.609Z,6.43
2023-09-27T14:16:24.606Z,6.22
2023-09-27T14:18:51.877Z,6.72
2023-09-27T14:21:19.001Z,5.80
2023-09-27T14:23:46.099Z,6.40
2023-09-27T14:26:13.173Z,5.78
2023-09-27T14:28:40.589Z,6.22
2023-09-27T14:31:07.590Z,6.15
2023-09-27T14:33:35.889Z,6.10
2023-09-27T14:36:06.576Z,6.60
2023-09-27T14:38:36.714Z,5.93
2023-09-27T14:41:10.593Z,5.55
2023-09-27T14:43:39.413Z,5.95
2023-09-27T14:46:11.876Z,5.95
2023-09-27T14:48:39.647Z,5.53
2023-09-27T14:51:10.648Z,5.75
2023-09-27T14:53:38.263Z,5.75
2023-09-27T14:56:13.777Z,5.50
2023-09-27T14:58:41.402Z,5.68
2023-09-27T15:01:09.050Z,5.50
2023-09-27T15:03:36.861Z,6.25
2023-09-27T15:06:04.946Z,5.63
2023-09-27T15:08:32.306Z,4.93
2023-09-27T15:10:59.653Z,5.18
2023-09-27T15:13:31.374Z,5.15
2023-09-27T15:15:58.817Z,5.60
2023-09-27T15:18:26.443Z,5.15
2023-09-27T15:20:54.813Z,5.00
2023-09-27T15:23:22.174Z,4.57
2023-09-27T15:25:50.097Z,5.43
2023-09-27T15:28:17.916Z,5.25
2023-09-27T15:30:45.067Z,4.93
2023-09-27T15:33:12.163Z,5.55
2023-09-27T15:35:39.591Z,5.10
2023-09-27T15:38:06.866Z,4.68
2023-09-27T15:40:34.484Z,5.28
2023-09-27T15:43:02.014Z,5.60
2023-09-27T15:45:30.637Z,4.93
2023-09-27T15:47:57.991Z,5.45
2023-09-27T15:50:25.228Z,4.82
2023-09-27T15:52:52.325Z,4.82
2023-09-27T15:55:20.589Z,5.03
2023-09-27T15:57:47.644Z,4.95
2023-09-27T16:00:15.273Z,5.20
2023-09-27T16:02:42.194Z,4.82
2023-09-27T16:05:11.956Z,5.10
2023-09-27T16:07:40.220Z,5.68
2023-09-27T16:10:10.094Z,5.25
2023-09-27T16:12:37.785Z,5.88
2023-09-27T16:15:07.765Z,5.55
2023-09-27T16:17:36.792Z,5.40
2023-09-27T16:20:05.920Z,5.30
2023-09-27T16:22:32.864Z,4.72
2023-09-27T16:25:00.546Z,5.65
2023-09-27T16:27:27.575Z,5.57
2023-09-27T16:29:55.464Z,5.93
2023-09-27T16:32:23.114Z,5.95
2023-09-27T16:34:50.242Z,6.25
2023-09-27T16:37:17.125Z,5.53
2023-09-27T16:39:44.087Z,7.25
2023-09-27T16:42:11.124Z,5.60
2023-09-27T16:44:38.070Z,5.03
2023-09-27T16:47:05.048Z,5.68
2023-09-27T16:49:32.133Z,5.22
2023-09-27T16:51:59.030Z,5.80
2023-09-27T16:54:25.996Z,5.85
2023-09-27T16:56:52.872Z,5.05
2023-09-27T16:59:20.583Z,5.68
2023-09-27T17:01:47.600Z,5.85
2023-09-27T17:04:14.702Z,5.97
2023-09-27T17:06:41.591Z,5.60
2023-09-27T17:09:08.517Z,6.47
2023-09-27T17:11:35.396Z,5.57
2023-09-27T17:14:02.432Z,6.30
2023-09-27T17:16:29.395Z,6.15
2023-09-27T17:18:57.948Z,6.65
2023-09-27T17:21:25.058Z,5.65
2023-09-27T17:23:52.512Z,6.18
2023-09-27T17:26:20.095Z,6.20
2023-09-27T17:28:47.331Z,5.95
2023-09-27T17:31:14.262Z,6.28
2023-09-27T17:33:42.751Z,6.55
2023-09-27T17:36:09.817Z,6.30
2023-09-27T17:38:36.775Z,5.40
2023-09-27T17:41:03.734Z,6.28
2023-09-27T17:43:30.811Z,6.35
2023-09-27T17:45:57.734Z,5.40
2023-09-27T17:48:24.830Z,5.30
2023-09-27T17:50:51.708Z,5.60
2023-09-27T17:53:18.794Z,5.55
2023-09-27T17:55:45.794Z,5.38
2023-09-27T17:58:12.801Z,5.57
2023-09-27T18:00:39.865Z,5.30
2023-09-27T18:03:06.852Z,5.78
2023-09-27T18:05:34.455Z,5.10
2023-09-27T18:08:01.526Z,5.43
2023-09-27T18:10:30.397Z,5.10
2023-09-27T18:12:57.396Z,5.60
2023-09-27T18:15:28.256Z,5.50
2023-09-27T18:17:56.344Z,5.10
2023-09-27T18:20:23.657Z,5.28
2023-09-27T18:22:50.853Z,5.53
2023-09-27T18:25:17.824Z,5.55
2023-09-27T18:27:44.980Z,5.35
2023-09-27T18:30:12.307Z,5.50
2023-09-27T18:32:39.357Z,5.55
2023-09-27T18:35:06.725Z,4.95
2023-09-27T18:37:34.703Z,4.95
2023-09-27T18:40:01.945Z,4.70
2023-09-27T18:42:29.260Z,4.78
2023-09-27T18:44:56.149Z,5.18
2023-09-27T18:47:23.264Z,5.00
2023-09-27T18:49:50.244Z,5.50
2023-09-27T18:52:17.202Z,5.45
2023-09-27T18:54:44.270Z,5.18
2023-09-27T18:57:11.350Z,5.00
2023-09-27T18:59:38.172Z,5.05
2023-09-27T19:02:05.208Z,4.55
2023-09-27T19:04:32.270Z,5.20
2023-09-27T19:06:59.339Z,4.63
2023-09-27T19:09:26.279Z,4.80
2023-09-27T19:11:54.395Z,4.82
2023-09-27T19:14:21.380Z,4.43
2023-09-27T19:16:48.540Z,4.95
2023-09-27T19:19:15.652Z,4.55
2023-09-27T19:21:43.528Z,4.63
2023-09-27T19:24:11.078Z,4.72
2023-09-27T19:26:39.894Z,4.90
2023-09-27T19:29:07.210Z,4.25
2023-09-27T19:31:34.631Z,4.40
2023-09-27T19:34:02.613Z,4.28
2023-09-27T19:36:30.071Z,4.65
2023-09-27T19:38:57.009Z,4.65
2023-09-27T19:41:31.114Z,4.68
2023-09-27T19:43:58.112Z,4.55
2023-09-27T19:46:26.545Z,4.57
2023-09-27T19:48:53.931Z,4.60
2023-09-27T19:51:26.497Z,4.28
2023-09-27T19:53:54.573Z,4.97
2023-09-27T19:56:22.589Z,4.68
2023-09-27T19:58:49.917Z,4.60
2023-09-27T20:01:35.708Z,4.30
2023-09-27T20:06:36.445Z,4.78
2023-09-27T20:09:10.197Z,4.55
2023-09-27T20:11:37.993Z,4.90
2023-09-27T20:14:05.487Z,4.60
2023-09-27T20:16:34.155Z,4.40
2023-09-27T20:19:01.315Z,4.55
2023-09-27T20:21:28.276Z,4.18
2023-09-27T20:23:55.902Z,4.85
2023-09-27T20:26:23.011Z,4.78
2023-09-27T20:28:49.932Z,4.38
2023-09-27T20:31:18.693Z,5.05
2023-09-27T20:33:45.785Z,4.53
2023-09-27T20:36:13.761Z,4.50
2023-09-27T20:38:41.514Z,5.13
2023-09-27T20:41:11.975Z,4.93
2023-09-27T20:43:39.659Z,5.10
2023-09-27T20:46:14.652Z,4.57
2023-09-27T20:48:41.841Z,4.65
2023-09-27T20:51:09.881Z,4.45
2023-09-27T20:53:36.898Z,4.60
2023-09-27T20:56:07.888Z,4.75
2023-09-27T20:58:35.393Z,4.60
2023-09-27T21:01:07.861Z,4.63
2023-09-27T21:03:35.217Z,4.28
2023-09-27T21:06:02.285Z,4.75
2023-09-27T21:08:29.260Z,4.70
2023-09-27T21:10:56.194Z,4.80
2023-09-27T21:13:23.139Z,4.80
2023-09-27T21:15:50.152Z,4.45
2023-09-27T21:18:17.087Z,4.53
2023-09-27T21:20:44.037Z,4.47
2023-09-27T21:23:11.051Z,4.45
2023-09-27T21:25:38.095Z,4.68
2023-09-27T21:28:08.146Z,4.10
2023-09-27T21:30:35.152Z,4.65
2023-09-27T21:33:02.169Z,4.68
2023-09-27T21:35:29.187Z,4.97
2023-09-27T21:37:56.149Z,4.78
2023-09-27T21:40:25.145Z,4.50
2023-09-27T21:42:53.131Z,4.20
2023-09-27T21:45:20.079Z,4.38
2023-09-27T21:47:46.986Z,4.38
2023-09-27T21:50:14.408Z,5.03
2023-09-27T21:52:41.470Z,4.55
2023-09-27T21:55:09.697Z,4.60
2023-09-27T21:57:38.562Z,4.53
2023-09-27T22:00:06.270Z,5.13
2023-09-27T22:02:38.940Z,4.70
2023-09-27T22:05:06.546Z,4.80
2023-09-27T22:07:34.084Z,4.97
2023-09-27T22:10:01.023Z,5.03
2023-09-27T22:12:29.289Z,4.55
2023-09-27T22:14:57.728Z,4.50
2023-09-27T22:17:24.819Z,5.10
2023-09-27T22:19:52.077Z,5.03
2023-09-27T22:22:21.974Z,4.85
2023-09-27T22:24:48.987Z,5.00
2023-09-27T22:27:17.168Z,5.15
2023-09-27T22:29:44.924Z,5.43
2023-09-27T22:32:12.820Z,5.30
2023-09-27T22:34:40.193Z,4.85
2023-09-27T22:37:09.015Z,5.47
2023-09-27T22:39:41.076Z,5.45
2023-09-27T22:42:13.902Z,5.57
2023-09-27T22:44:42.551Z,5.07
2023-09-27T22:47:10.808Z,5.00
2023-09-27T22:49:38.224Z,5.50
2023-09-27T22:52:10.130Z,5.20
2023-09-27T22:54:39.467Z,5.32
2023-09-27T22:57:06.603Z,5.97
2023-09-27T22:59:33.563Z,5.22
2023-09-27T23:02:09.098Z,5.43
2023-09-27T23:04:36.316Z,5.40
2023-09-27T23:07:03.309Z,5.47
2023-09-27T23:09:36.822Z,5.35
2023-09-27T23:12:21.518Z,5.65
2023-09-27T23:15:21.087Z,5.95
2023-09-27T23:18:01.265Z,5.38
2023-09-27T23:20:31.466Z,5.57
2023-09-27T23:22:59.634Z,5.43
2023-09-27T23:25:44.822Z,5.60
2023-09-27T23:28:38.900Z,5.57
2023-09-27T23:31:10.485Z,4.85
2023-09-27T23:33:44.782Z,5.53
2023-09-27T23:36:26.870Z,5.80
2023-09-27T23:38:57.654Z,5.80
2023-09-27T23:41:32.235Z,5.70
2023-09-27T23:44:09.782Z,5.30
2023-09-27T23:46:38.635Z,5.30
2023-09-27T23:49:06.616Z,5.10
2023-09-27T23:51:34.196Z,4.78
2023-09-27T23:54:03.718Z,4.80
2023-09-27T23:56:31.237Z,4.20
2023-09-27T23:59:08.947Z,4.75
